AGGH

Honiara International Airport

Honiara, Solomon Islands
METAR AGGH 100600Z 07008KT 9999 HZ SCT019 FEW020CB 31/25 Q1005
Observed Flight Rules
Dec-10 @ 06:00 UTC (30 minutes ago) Visual Flight Rules
Wind Visibility Clouds Conditions
70° at 8 knots 10,000+ meters
  • Scattered at 1,900' AGL
  • Few at 2,000' AGL
  • Haze
Temperatures Readings
Current 31°C / 88°F
Dewpoint 25°C / 77°F
Humidity 70%
Altimeter 29.68" Hg
Pressure 1005 hPa
Elevation 9
METAR AGGH 100600Z 07008KT 9999 HZ SCT019 FEW020CB 31/25 Q1005
Observed Flight Rules
Dec-10 @ 06:00 UTC
(30 minutes ago)
VFR
Wind Visibility
70° at 8 knots 10,000+ meters
Clouds
  • Scattered at 1,900' AGL
  • Few at 2,000' AGL
Conditions
  • Haze
Temperature Dewpoint
31°C / 88°F 25°C / 77°F
Humidity Altimeter Pressure
70% 29.68" Hg 1005 hPa